createdAt,value
2023-12-15T00:02:10.238Z,97841.63
2023-12-15T00:04:37.794Z,97857.22
2023-12-15T00:07:05.519Z,97858.69
2023-12-15T00:09:33.060Z,97865.50
2023-12-15T00:12:01.979Z,97861.19
2023-12-15T00:14:29.594Z,97867.03
2023-12-15T00:16:57.328Z,97863.38
2023-12-15T00:19:24.931Z,97873.91
2023-12-15T00:21:52.587Z,97877.72
2023-12-15T00:24:20.133Z,97879.38
2023-12-15T00:26:47.676Z,97882.56
2023-12-15T00:29:16.622Z,97891.34
2023-12-15T00:31:44.169Z,97888.84
2023-12-15T00:34:11.777Z,97890.84
2023-12-15T00:36:39.488Z,97898.47
2023-12-15T00:39:07.238Z,97898.31
2023-12-15T00:41:34.819Z,97909.91
2023-12-15T00:44:03.537Z,97908.25
2023-12-15T00:46:32.716Z,97910.72
2023-12-15T00:49:00.469Z,97917.16
2023-12-15T00:51:28.068Z,97909.41
2023-12-15T00:53:55.640Z,97926.81
2023-12-15T00:56:23.304Z,97929.25
2023-12-15T00:58:50.927Z,97927.31
2023-12-15T01:01:18.561Z,97928.25
2023-12-15T01:03:47.582Z,97925.97
2023-12-15T01:06:15.326Z,97941.84
2023-12-15T01:08:43.065Z,97948.16
2023-12-15T01:11:10.655Z,97942.00
2023-12-15T01:13:38.250Z,97948.31
2023-12-15T01:16:06.981Z,97956.91
2023-12-15T01:18:34.869Z,97962.84
2023-12-15T01:21:03.844Z,97959.06
2023-12-15T01:23:31.481Z,97969.66
2023-12-15T01:25:59.131Z,97974.94
2023-12-15T01:28:27.704Z,97978.44
2023-12-15T01:30:55.332Z,97985.03
2023-12-15T01:33:23.015Z,97995.75
2023-12-15T01:35:50.837Z,97992.44
2023-12-15T01:38:20.011Z,97999.88
2023-12-15T01:40:47.604Z,98002.06
2023-12-15T01:43:15.172Z,98005.50
2023-12-15T01:45:42.702Z,97998.91
2023-12-15T01:48:10.351Z,98005.13
2023-12-15T01:50:38.003Z,98006.44
2023-12-15T01:53:05.641Z,98010.91
2023-12-15T01:55:34.753Z,98013.72
2023-12-15T01:58:02.346Z,98018.88
2023-12-15T02:00:29.996Z,98026.13
2023-12-15T02:02:57.701Z,98028.47
2023-12-15T02:05:25.373Z,98025.31
2023-12-15T02:07:52.996Z,98026.97
2023-12-15T02:10:20.664Z,98030.31
2023-12-15T02:12:49.899Z,98043.22
2023-12-15T02:15:17.538Z,98038.56
2023-12-15T02:17:45.415Z,98042.84
2023-12-15T02:20:13.211Z,98053.00
2023-12-15T02:22:42.129Z,98055.28
2023-12-15T02:25:10.054Z,98064.56
2023-12-15T02:27:37.884Z,98057.44
2023-12-15T02:30:06.530Z,98060.38
2023-12-15T02:32:34.193Z,98065.50
2023-12-15T02:35:01.972Z,98061.84
2023-12-15T02:37:29.825Z,98058.56
2023-12-15T02:39:58.865Z,98067.84
2023-12-15T02:42:26.425Z,98080.63
2023-12-15T02:44:54.005Z,98076.97
2023-12-15T02:47:21.586Z,98081.44
2023-12-15T02:49:49.267Z,98081.75
2023-12-15T02:52:16.900Z,98087.00
2023-12-15T02:54:44.486Z,98098.22
2023-12-15T02:57:13.389Z,98099.00
2023-12-15T02:59:40.965Z,98108.19
2023-12-15T03:02:08.658Z,98113.25
2023-12-15T03:04:36.271Z,98113.22
2023-12-15T03:07:03.935Z,98120.31
2023-12-15T03:09:31.931Z,98130.75
2023-12-15T03:11:59.671Z,98124.88
2023-12-15T03:14:28.657Z,98137.25
2023-12-15T03:16:56.356Z,98155.34
2023-12-15T03:19:24.043Z,98151.03
2023-12-15T03:21:51.665Z,98146.72
2023-12-15T03:24:19.208Z,98154.72
2023-12-15T03:26:46.844Z,98156.25
2023-12-15T03:29:14.432Z,98161.44
2023-12-15T03:31:43.556Z,98159.41
2023-12-15T03:34:11.204Z,98153.91
2023-12-15T03:36:40.281Z,98159.25
2023-12-15T03:39:08.216Z,98174.31
2023-12-15T03:41:36.131Z,98168.63
2023-12-15T03:44:03.743Z,98182.22
2023-12-15T03:46:32.047Z,98185.56
2023-12-15T03:49:00.950Z,98198.31
2023-12-15T03:51:28.623Z,98196.38
2023-12-15T03:53:56.229Z,98205.50
2023-12-15T03:56:27.461Z,98204.66
2023-12-15T03:58:55.394Z,98208.97
2023-12-15T04:01:23.146Z,98210.59
2023-12-15T04:03:50.764Z,98216.34
2023-12-15T04:06:19.772Z,98219.53
2023-12-15T04:08:47.365Z,98230.84
2023-12-15T04:11:17.686Z,98247.66
2023-12-15T04:13:45.758Z,98243.97
2023-12-15T04:16:13.361Z,98250.91
2023-12-15T04:18:41.027Z,98257.97
2023-12-15T04:21:08.833Z,98269.78
2023-12-15T04:23:37.774Z,98269.63
2023-12-15T04:26:05.956Z,98269.09
2023-12-15T04:28:33.604Z,98268.69
2023-12-15T04:31:01.230Z,98276.59
2023-12-15T04:33:28.897Z,98283.56
2023-12-15T04:35:56.521Z,98285.75
2023-12-15T04:38:24.104Z,98278.25
2023-12-15T04:40:52.067Z,98287.81
2023-12-15T04:43:19.624Z,98287.66
2023-12-15T04:45:47.207Z,98289.59
2023-12-15T04:48:14.870Z,98293.81
2023-12-15T04:50:42.599Z,98278.44
2023-12-15T04:53:10.276Z,98295.38
2023-12-15T04:55:37.873Z,98297.50
2023-12-15T04:58:07.053Z,98318.22
2023-12-15T05:00:34.852Z,98318.38
2023-12-15T05:03:02.496Z,98327.13
2023-12-15T05:05:30.141Z,98338.25
2023-12-15T05:07:57.877Z,98347.16
2023-12-15T05:10:25.645Z,98334.78
2023-12-15T05:12:53.239Z,98337.97
2023-12-15T05:15:22.445Z,98349.53
2023-12-15T05:17:50.906Z,98341.47
2023-12-15T05:20:18.828Z,98347.28
2023-12-15T05:22:46.422Z,98346.84
2023-12-15T05:25:14.131Z,98354.78
2023-12-15T05:27:41.670Z,98351.72
2023-12-15T05:30:09.984Z,98363.81
2023-12-15T05:32:39.127Z,98365.72
2023-12-15T05:35:07.592Z,98372.41
2023-12-15T05:37:35.302Z,98385.59
2023-12-15T05:40:03.499Z,98392.41
2023-12-15T05:42:31.064Z,98393.94
2023-12-15T05:44:58.636Z,98402.16
2023-12-15T05:47:26.331Z,98402.31
2023-12-15T05:49:55.897Z,98400.25
2023-12-15T05:52:23.536Z,98410.41
2023-12-15T05:54:51.109Z,98412.63
2023-12-15T05:57:18.764Z,98414.81
2023-12-15T05:59:46.417Z,98422.63
2023-12-15T06:02:14.063Z,98421.41
2023-12-15T06:04:41.672Z,98422.50
2023-12-15T06:07:10.934Z,98411.69
2023-12-15T06:09:38.827Z,98436.00
2023-12-15T06:12:07.688Z,98441.69
2023-12-15T06:14:35.499Z,98449.91
2023-12-15T06:17:07.147Z,98451.19
2023-12-15T06:19:34.956Z,98454.50
2023-12-15T06:22:02.615Z,98457.81
2023-12-15T06:24:31.508Z,98451.59
2023-12-15T06:26:59.080Z,98464.09
2023-12-15T06:29:26.778Z,98468.25
2023-12-15T06:31:54.423Z,98465.47
2023-12-15T06:34:22.123Z,98473.28
2023-12-15T06:36:49.789Z,98465.91
2023-12-15T06:39:17.353Z,98470.75
2023-12-15T06:41:46.246Z,98480.47
2023-12-15T06:44:13.872Z,98487.16
2023-12-15T06:46:41.545Z,98495.22
2023-12-15T06:49:09.243Z,98499.56
2023-12-15T06:51:36.907Z,98506.53
2023-12-15T06:54:04.647Z,98507.47
2023-12-15T06:56:32.315Z,98517.34
2023-12-15T06:59:01.275Z,98521.66
2023-12-15T07:01:28.859Z,98527.66
2023-12-15T07:03:56.469Z,98527.81
2023-12-15T07:06:24.625Z,98530.44
2023-12-15T07:08:55.824Z,98551.16
2023-12-15T07:11:23.488Z,98546.16
2023-12-15T07:13:51.095Z,98540.88
2023-12-15T07:16:20.098Z,98543.22
2023-12-15T07:18:47.761Z,98554.50
2023-12-15T07:21:15.472Z,98553.56
2023-12-15T07:23:43.085Z,98553.13
2023-12-15T07:26:12.261Z,98548.81
2023-12-15T07:28:39.861Z,98550.03
2023-12-15T07:31:10.577Z,98556.84
2023-12-15T07:33:41.244Z,98558.69
2023-12-15T07:36:10.946Z,98558.25
2023-12-15T07:38:38.691Z,98562.13
2023-12-15T07:41:07.516Z,98566.84
2023-12-15T07:43:35.250Z,98571.56
2023-12-15T07:46:02.895Z,98569.75
2023-12-15T07:48:30.588Z,98570.19
2023-12-15T07:50:59.624Z,98585.50
2023-12-15T07:53:27.322Z,98587.16
2023-12-15T07:55:55.159Z,98586.72
2023-12-15T07:58:22.722Z,98582.56
2023-12-15T08:00:52.891Z,98588.53
2023-12-15T08:03:20.531Z,98592.28
2023-12-15T08:05:48.221Z,98590.50
2023-12-15T08:08:17.213Z,98595.34
2023-12-15T08:10:44.782Z,98604.94
2023-12-15T08:13:14.685Z,98599.53
2023-12-15T08:15:42.360Z,98609.13
2023-12-15T08:18:10.303Z,98605.66
2023-12-15T08:20:38.031Z,98590.50
2023-12-15T08:23:05.714Z,98619.59
2023-12-15T08:25:34.618Z,98627.38
2023-12-15T08:28:03.616Z,98632.78
2023-12-15T08:30:31.345Z,98632.66
2023-12-15T08:33:02.686Z,98632.34
2023-12-15T08:35:30.434Z,98633.88
2023-12-15T08:37:58.917Z,98634.06
2023-12-15T08:40:26.735Z,98638.63
2023-12-15T08:42:55.701Z,98643.91
2023-12-15T08:45:23.495Z,98642.81
2023-12-15T08:47:51.795Z,98644.34
2023-12-15T08:50:19.921Z,98641.81
2023-12-15T08:52:47.513Z,98646.00
2023-12-15T08:55:15.185Z,98641.25
2023-12-15T08:57:42.721Z,98644.75
2023-12-15T09:00:13.097Z,98649.38
2023-12-15T09:02:40.672Z,98649.75
2023-12-15T09:05:19.027Z,98657.09
2023-12-15T09:07:56.685Z,98654.75
2023-12-15T09:10:25.241Z,98657.09
2023-12-15T09:12:53.062Z,98662.69
2023-12-15T09:15:22.008Z,98666.41
2023-12-15T09:17:49.825Z,98662.47
2023-12-15T09:20:17.552Z,98666.88
2023-12-15T09:22:45.484Z,98667.41
2023-12-15T09:25:13.029Z,98665.00
2023-12-15T09:27:41.063Z,98673.03
2023-12-15T09:30:09.388Z,98676.53
2023-12-15T09:32:38.447Z,98679.88
2023-12-15T09:35:06.806Z,98672.44
2023-12-15T09:37:34.397Z,98684.22
2023-12-15T09:40:01.989Z,98683.38
2023-12-15T09:42:29.559Z,98669.25
2023-12-15T09:45:04.481Z,98672.31
2023-12-15T09:47:39.182Z,98677.47
2023-12-15T09:50:07.887Z,98687.75
2023-12-15T09:52:37.781Z,98695.25
2023-12-15T09:55:07.417Z,98694.78
2023-12-15T09:57:35.769Z,98692.22
2023-12-15T10:00:04.272Z,98687.72
2023-12-15T10:02:31.822Z,98685.66
2023-12-15T10:05:00.781Z,98687.09
2023-12-15T10:07:28.333Z,98679.97
2023-12-15T10:09:55.883Z,98685.09
2023-12-15T10:12:23.676Z,98691.81
2023-12-15T10:14:51.233Z,98702.03
2023-12-15T10:17:18.989Z,98696.91
2023-12-15T10:19:46.871Z,98695.38
2023-12-15T10:22:15.891Z,98701.44
2023-12-15T10:24:43.448Z,98702.50
2023-12-15T10:27:11.084Z,98707.44
2023-12-15T10:29:40.189Z,98690.84
2023-12-15T10:32:08.076Z,98706.22
2023-12-15T10:34:35.783Z,98709.25
2023-12-15T10:37:03.507Z,98711.69
2023-12-15T10:39:33.299Z,98708.94
2023-12-15T10:42:01.144Z,98717.81
2023-12-15T10:44:28.983Z,98719.03
2023-12-15T10:46:56.668Z,98714.50
2023-12-15T10:49:27.096Z,98713.88
2023-12-15T10:51:59.400Z,98717.16
2023-12-15T10:54:28.237Z,98716.25
2023-12-15T10:56:57.139Z,98707.81
2023-12-15T10:59:24.704Z,98708.34
2023-12-15T11:01:52.421Z,98708.44
2023-12-15T11:04:23.727Z,98718.22
2023-12-15T11:06:51.665Z,98714.50
2023-12-15T11:09:42.904Z,98725.72
2023-12-15T11:12:29.487Z,98728.44
2023-12-15T11:15:01.007Z,98732.47
2023-12-15T11:17:30.640Z,98730.50
2023-12-15T11:20:07.403Z,98737.09
2023-12-15T11:22:49.681Z,98736.72
2023-12-15T11:25:21.074Z,98730.94
2023-12-15T11:28:03.305Z,98740.03
2023-12-15T11:30:32.710Z,98743.31
2023-12-15T11:33:00.800Z,98736.56
2023-12-15T11:35:30.924Z,98728.84
2023-12-15T11:37:59.885Z,98745.53
2023-12-15T11:40:30.552Z,98751.44
2023-12-15T11:42:59.034Z,98751.53
2023-12-15T11:45:28.246Z,98757.97
2023-12-15T11:47:56.194Z,98749.50
2023-12-15T11:50:24.015Z,98769.19
2023-12-15T11:52:52.750Z,98763.50
2023-12-15T11:55:21.685Z,98773.38
2023-12-15T11:57:49.255Z,98774.84
2023-12-15T12:00:20.728Z,98778.84
2023-12-15T12:02:50.129Z,98777.69
2023-12-15T12:05:17.785Z,98778.59
2023-12-15T12:07:45.345Z,98779.38
2023-12-15T12:10:13.001Z,98783.97
2023-12-15T12:12:40.698Z,98785.22
2023-12-15T12:15:10.944Z,98784.84
2023-12-15T12:17:39.744Z,98777.53
2023-12-15T12:20:12.241Z,98777.31
2023-12-15T12:22:40.623Z,98772.84
2023-12-15T12:25:09.110Z,98779.19
2023-12-15T12:27:37.558Z,98769.78
2023-12-15T12:30:12.894Z,98762.88
2023-12-15T12:32:41.494Z,98757.09
2023-12-15T12:35:11.099Z,98770.38
2023-12-15T12:37:38.661Z,98767.25
2023-12-15T12:40:07.593Z,98761.25
2023-12-15T12:42:35.437Z,98733.81
2023-12-15T12:45:03.228Z,98766.63
2023-12-15T12:47:32.044Z,98767.28
2023-12-15T12:50:00.852Z,98768.94
2023-12-15T12:52:29.815Z,98757.78
2023-12-15T12:54:57.491Z,98761.69
2023-12-15T12:57:29.458Z,98753.19
2023-12-15T12:59:57.047Z,98754.47
2023-12-15T13:02:24.989Z,98756.66
2023-12-15T13:04:52.716Z,98753.00
2023-12-15T13:07:20.509Z,98755.50
2023-12-15T13:09:49.432Z,98760.69
2023-12-15T13:12:19.234Z,98758.56
2023-12-15T13:14:47.115Z,98750.09
2023-12-15T13:17:15.333Z,98757.78
2023-12-15T13:19:43.042Z,98761.94
2023-12-15T13:22:10.623Z,98767.56
2023-12-15T13:24:47.045Z,98771.75
2023-12-15T13:27:23.994Z,98778.50
2023-12-15T13:29:52.257Z,98771.38
2023-12-15T13:32:20.073Z,98774.34
2023-12-15T13:34:47.871Z,98774.78
2023-12-15T13:37:15.708Z,98775.94
2023-12-15T13:39:43.934Z,98767.75
2023-12-15T13:42:11.536Z,98777.16
2023-12-15T13:44:40.592Z,98780.13
2023-12-15T13:47:08.284Z,98779.28
2023-12-15T13:49:35.909Z,98779.28
2023-12-15T13:52:04.753Z,98783.06
2023-12-15T13:54:32.415Z,98773.28
2023-12-15T13:57:04.216Z,98775.09
2023-12-15T13:59:32.828Z,98772.78
2023-12-15T14:02:01.816Z,98784.25
2023-12-15T14:04:29.404Z,98787.56
2023-12-15T14:07:00.056Z,98796.34
2023-12-15T14:09:29.055Z,98796.53
2023-12-15T14:11:57.358Z,98791.50
2023-12-15T14:14:25.136Z,98795.81
2023-12-15T14:16:52.767Z,98797.81
2023-12-15T14:19:21.776Z,98798.81
2023-12-15T14:21:50.054Z,98799.78
2023-12-15T14:24:19.220Z,98803.28
2023-12-15T14:26:47.813Z,98807.59
2023-12-15T14:29:15.863Z,98803.13
2023-12-15T14:31:43.516Z,98812.91
2023-12-15T14:34:11.286Z,98806.91
2023-12-15T14:36:40.309Z,98809.72
2023-12-15T14:39:08.172Z,98809.72
2023-12-15T14:41:37.542Z,98812.22
2023-12-15T14:44:06.194Z,98800.41
2023-12-15T14:46:35.156Z,98823.84
2023-12-15T14:49:03.266Z,98832.09
2023-12-15T14:51:30.979Z,98842.03
2023-12-15T14:53:59.844Z,98842.91
2023-12-15T14:56:27.414Z,98849.19
2023-12-15T14:58:55.039Z,98847.66
2023-12-15T15:01:23.644Z,98838.72
2023-12-15T15:03:51.534Z,98846.81
2023-12-15T15:06:29.235Z,98839.00
2023-12-15T15:09:01.856Z,98833.59
2023-12-15T15:11:30.341Z,98844.91
2023-12-15T15:13:57.979Z,98853.56
2023-12-15T15:16:25.564Z,98849.22
2023-12-15T15:18:53.367Z,98853.03
2023-12-15T15:21:22.085Z,98854.84
2023-12-15T15:23:49.997Z,98866.16
2023-12-15T15:26:18.970Z,98870.78
2023-12-15T15:28:46.588Z,98878.88
2023-12-15T15:31:15.237Z,98878.06
2023-12-15T15:33:42.973Z,98884.19
2023-12-15T15:36:11.035Z,98881.41
2023-12-15T15:38:38.834Z,98887.38
2023-12-15T15:41:07.476Z,98887.56
2023-12-15T15:43:37.613Z,98881.53
2023-12-15T15:46:05.537Z,98896.47
2023-12-15T15:48:33.227Z,98896.78
2023-12-15T15:51:00.975Z,98899.44
2023-12-15T15:53:28.626Z,98902.94
2023-12-15T15:55:56.447Z,98901.97
2023-12-15T15:58:24.351Z,98898.31
2023-12-15T16:00:53.455Z,98900.97
2023-12-15T16:03:21.265Z,98902.66
2023-12-15T16:05:48.950Z,98900.13
2023-12-15T16:08:16.549Z,98908.94
2023-12-15T16:10:45.679Z,98916.06
2023-12-15T16:13:14.080Z,98908.53
2023-12-15T16:15:41.911Z,98911.06
2023-12-15T16:18:11.135Z,98902.09
2023-12-15T16:20:38.988Z,98904.75
2023-12-15T16:23:06.533Z,98895.81
2023-12-15T16:25:34.217Z,98895.13
2023-12-15T16:28:02.159Z,98897.94
2023-12-15T16:30:29.793Z,98907.88
2023-12-15T16:32:57.574Z,98906.34
2023-12-15T16:35:26.572Z,98904.50
2023-12-15T16:37:54.443Z,98905.50
2023-12-15T16:40:22.157Z,98908.16
2023-12-15T16:42:49.855Z,98919.63
2023-12-15T16:45:18.025Z,98919.75
2023-12-15T16:47:47.366Z,98918.09
2023-12-15T16:50:15.110Z,98918.09
2023-12-15T16:52:44.085Z,98911.94
2023-12-15T16:55:11.768Z,98924.22
2023-12-15T16:57:41.230Z,98923.25
2023-12-15T17:00:10.081Z,98922.28
2023-12-15T17:02:37.871Z,98919.44
2023-12-15T17:05:06.226Z,98923.94
2023-12-15T17:07:33.873Z,98927.41
2023-12-15T17:10:02.853Z,98933.72
2023-12-15T17:12:30.476Z,98940.69
2023-12-15T17:14:58.262Z,98933.72
2023-12-15T17:17:26.008Z,98927.56
2023-12-15T17:19:53.818Z,98930.38
2023-12-15T17:22:21.649Z,98937.66
2023-12-15T17:24:49.790Z,98934.84
2023-12-15T17:27:18.799Z,98947.28
2023-12-15T17:29:50.142Z,98944.63
2023-12-15T17:32:19.232Z,98948.09
2023-12-15T17:34:47.206Z,98948.94
2023-12-15T17:37:15.003Z,98956.78
2023-12-15T17:39:42.740Z,98951.31
2023-12-15T17:42:10.345Z,98953.00
2023-12-15T17:44:39.208Z,98953.69
2023-12-15T17:47:06.957Z,98961.66
2023-12-15T17:49:35.135Z,98963.31
2023-12-15T17:52:03.382Z,98938.34
2023-12-15T17:54:30.959Z,98949.91
2023-12-15T17:56:58.620Z,98971.81
2023-12-15T17:59:26.255Z,98971.81
2023-12-15T18:01:55.204Z,98962.06
2023-12-15T18:04:22.859Z,98981.63
2023-12-15T18:06:50.528Z,98977.28
2023-12-15T18:09:18.998Z,98989.59
2023-12-15T18:11:47.262Z,98986.94
2023-12-15T18:14:15.194Z,98993.78
2023-12-15T18:16:42.755Z,98993.91
2023-12-15T18:19:12.379Z,98991.13
2023-12-15T18:21:41.050Z,98999.91
2023-12-15T18:24:09.069Z,99020.34
2023-12-15T18:26:37.884Z,99013.03
2023-12-15T18:29:06.081Z,99006.88
2023-12-15T18:31:33.809Z,99017.50
2023-12-15T18:34:01.596Z,99019.34
2023-12-15T18:36:30.539Z,99014.84
2023-12-15T18:38:58.065Z,99024.66
2023-12-15T18:41:26.737Z,99016.38
2023-12-15T18:43:54.241Z,99027.13
2023-12-15T18:46:21.856Z,99036.94
2023-12-15T18:48:49.740Z,99024.78
2023-12-15T18:51:19.043Z,99017.81
2023-12-15T18:53:48.242Z,99021.47
2023-12-15T18:56:19.398Z,99021.47
2023-12-15T18:58:48.886Z,99019.63
2023-12-15T19:01:17.561Z,99023.94
2023-12-15T19:03:45.623Z,99030.97
2023-12-15T19:06:14.984Z,99028.44
2023-12-15T19:08:42.825Z,99025.47
2023-12-15T19:11:13.609Z,99028.97
2023-12-15T19:13:41.287Z,99047.56
2023-12-15T19:16:09.767Z,99050.22
2023-12-15T19:18:37.463Z,99060.16
2023-12-15T19:21:05.973Z,99051.34
2023-12-15T19:23:33.729Z,99053.00
2023-12-15T19:26:01.317Z,99056.34
2023-12-15T19:28:30.276Z,99055.53
2023-12-15T19:30:58.399Z,99058.19
2023-12-15T19:33:26.163Z,99066.28
2023-12-15T19:35:53.827Z,99063.63
2023-12-15T19:38:21.486Z,99070.78
2023-12-15T19:40:49.032Z,99075.09
2023-12-15T19:43:16.816Z,99069.09
2023-12-15T19:45:45.956Z,99081.53
2023-12-15T19:48:13.903Z,99084.88
2023-12-15T19:50:41.714Z,99077.06
2023-12-15T19:53:09.296Z,99078.75
2023-12-15T19:55:38.442Z,99076.91
2023-12-15T19:58:07.475Z,99073.72
2023-12-15T20:00:36.613Z,99080.41
2023-12-15T20:03:05.652Z,99076.78
2023-12-15T20:05:33.248Z,99076.91
2023-12-15T20:08:01.488Z,99083.75
2023-12-15T20:10:29.085Z,99075.09
2023-12-15T20:12:59.217Z,99083.63
2023-12-15T20:15:27.675Z,99088.81
2023-12-15T20:17:55.335Z,99090.59
2023-12-15T20:20:24.383Z,99093.13
2023-12-15T20:22:51.954Z,99098.28
2023-12-15T20:25:19.637Z,99103.03
2023-12-15T20:27:47.421Z,99122.59
2023-12-15T20:30:15.374Z,99124.44
2023-12-15T20:32:43.742Z,99128.22
2023-12-15T20:35:11.841Z,99136.19
2023-12-15T20:37:41.057Z,99132.81
2023-12-15T20:40:12.055Z,99144.28
2023-12-15T20:42:39.673Z,99144.41
2023-12-15T20:45:08.650Z,99145.41
2023-12-15T20:47:37.166Z,99155.03
2023-12-15T20:50:05.902Z,99155.03
2023-12-15T20:52:33.851Z,99150.72
2023-12-15T20:55:02.897Z,99151.69
2023-12-15T20:57:30.557Z,99136.75
2023-12-15T20:59:58.274Z,99123.31
2023-12-15T21:02:26.925Z,99126.94
2023-12-15T21:04:54.606Z,99123.31
2023-12-15T21:07:22.863Z,99119.97
2023-12-15T21:09:52.199Z,99119.28
2023-12-15T21:12:23.193Z,99110.59
2023-12-15T21:14:51.098Z,99118.72
2023-12-15T21:17:18.828Z,99112.44
2023-12-15T21:19:46.525Z,99116.06
2023-12-15T21:22:14.421Z,99138.31
2023-12-15T21:24:42.649Z,99145.28
2023-12-15T21:27:10.236Z,99144.88
2023-12-15T21:29:39.114Z,99139.69
2023-12-15T21:32:07.054Z,99127.53
2023-12-15T21:34:34.697Z,99140.94
2023-12-15T21:37:02.444Z,99149.75
2023-12-15T21:39:30.196Z,99154.38
2023-12-15T21:41:57.753Z,99158.13
2023-12-15T21:44:25.342Z,99148.63
2023-12-15T21:46:54.408Z,99151.41
2023-12-15T21:49:22.169Z,99141.78
2023-12-15T21:51:49.839Z,99144.56
2023-12-15T21:54:17.481Z,99152.53
2023-12-15T21:56:45.584Z,99136.47
2023-12-15T21:59:13.873Z,99134.81
2023-12-15T22:01:41.726Z,99135.94
2023-12-15T22:04:12.092Z,99137.59
2023-12-15T22:06:39.937Z,99149.06
2023-12-15T22:09:10.318Z,99139.56
2023-12-15T22:11:37.955Z,99150.19
2023-12-15T22:14:05.605Z,99157.16
2023-12-15T22:16:35.814Z,99151.00
2023-12-15T22:19:06.916Z,99150.00
2023-12-15T22:21:38.954Z,99145.69
2023-12-15T22:24:06.859Z,99141.50
2023-12-15T22:26:34.418Z,99146.25
2023-12-15T22:29:02.013Z,99141.09
2023-12-15T22:31:29.648Z,99152.66
2023-12-15T22:33:57.323Z,99149.19
2023-12-15T22:36:24.941Z,99145.69
2023-12-15T22:38:53.837Z,99150.00
2023-12-15T22:41:22.978Z,99147.34
2023-12-15T22:43:50.620Z,99158.69
2023-12-15T22:46:18.892Z,99160.38
2023-12-15T22:48:46.544Z,99164.81
2023-12-15T22:51:14.753Z,99167.34
2023-12-15T22:53:42.425Z,99172.78
2023-12-15T22:56:12.114Z,99180.06
2023-12-15T22:58:39.769Z,99189.69
2023-12-15T23:01:07.664Z,99176.72
2023-12-15T23:03:35.309Z,99175.44
2023-12-15T23:06:02.896Z,99165.69
2023-12-15T23:08:30.539Z,99154.22
2023-12-15T23:10:58.092Z,99156.03
2023-12-15T23:13:27.066Z,99156.03
2023-12-15T23:15:54.867Z,99158.53
2023-12-15T23:18:22.846Z,99161.19
2023-12-15T23:20:50.521Z,99163.03
2023-12-15T23:23:18.540Z,99174.31
2023-12-15T23:25:46.240Z,99181.31
2023-12-15T23:28:13.909Z,99180.63
2023-12-15T23:30:43.368Z,99176.00
2023-12-15T23:33:11.036Z,99174.47
2023-12-15T23:35:39.203Z,99165.53
2023-12-15T23:38:06.805Z,99176.16
2023-12-15T23:40:34.375Z,99170.00
2023-12-15T23:43:02.821Z,99165.69
2023-12-15T23:45:30.469Z,99176.41
2023-12-15T23:47:59.485Z,99182.72
2023-12-15T23:50:27.171Z,99183.56
2023-12-15T23:52:55.506Z,99189.81
2023-12-15T23:55:23.172Z,99179.38
2023-12-15T23:57:50.822Z,99162.03
